This is the latest recevied weather packets stored in our database for station/object N5KR. If no packets are shown the sender has not sent any weather packets the latest 10 day(s).
| Time | Temp. | Humidity | Pressure | Rain* | Wind** | Luminosity | Snow |
|---|---|---|---|---|---|---|---|
| 1777728605 | 15° C | 67% | 1021.9 hPa | 0 mm | - | 211 W/m² | - |
| 1777726505 | 12.22° C | 79% | 1021.5 hPa | 0 mm | - | 111 W/m² | - |
| 1777725004 | 11.11° C | 86% | 1021 hPa | 0 mm | - | 30 W/m² | - |
| 1777724404 | 10.56° C | 89% | 1020.8 hPa | 0 mm | - | 19 W/m² | - |
| 1777722904 | 10.56° C | 89% | 1020.5 hPa | 0 mm | - | 8 W/m² | - |
| 1777722304 | 10.56° C | 89% | 1020.4 hPa | 0 mm | - | 5 W/m² | - |
| 1777722004 | 10.56° C | 89% | 1020.3 hPa | 0 mm | - | 0 W/m² | - |
| 1777721704 | 10.56° C | 89% | 1020.3 hPa | 0 mm | - | 0 W/m² | - |
| 1777719304 | 10.56° C | 88% | 1020 hPa | 0 mm | - | 0 W/m² | - |
| 1777718404 | 10.56° C | 88% | 1019.8 hPa | 0 mm | - | 0 W/m² | - |
| 1777718104 | 10.56° C | 88% | 1019.6 hPa | 0 mm | - | 0 W/m² | - |
| 1777716004 | 11.11° C | 86% | 1019.5 hPa | 0 mm | - | 0 W/m² | - |
| 1777711504 | 11.67° C | 86% | 1019.2 hPa | 0 mm | - | 0 W/m² | - |
| 1777707007 | 12.22° C | 81% | 1019.5 hPa | 0 mm | - | 0 W/m² | - |
| 1777706106 | 12.22° C | 81% | 1019.5 hPa | 0 mm | - | 0 W/m² | - |
| 1777699806 | 12.78° C | 82% | 1019.5 hPa | 0 mm | - | 0 W/m² | - |
| 1777695307 | 13.89° C | 76% | 1019.4 hPa | 0 mm | - | 0 W/m² | - |
| 1777692906 | 14.44° C | 74% | 1019.4 hPa | 0 mm | - | 0 W/m² | - |
| 1777689906 | 15.56° C | 69% | 1019 hPa | 0 mm | - | 0 W/m² | - |
| 1777689306 | 16.11° C | 67% | 1018.9 hPa | 0 mm | - | 0 W/m² | - |
| 1777687206 | 16.11° C | 65% | 1018.3 hPa | 0 mm | - | 0 W/m² | - |
| 1777686006 | 16.67° C | 64% | 1017.9 hPa | 0 mm | - | 0 W/m² | - |
| 1777680305 | 17.78° C | 59% | 1016.3 hPa | 0 mm | - | 38 W/m² | - |
| 1777679705 | 17.78° C | 59% | 1016.2 hPa | 0 mm | - | 41 W/m² | - |
| 1777678806 | 17.78° C | 58% | 1016 hPa | 0 mm | - | 54 W/m² | - |
* Rain latest hour (hover to see other rain measurements)
** Current wind speed in m/s (hover to see current wind gust speed)